sensor_id;sensor_type;location;lat;lon;timestamp;pressure;altitude;pressure_sealevel;temperature;humidity
70437;BME280;57877;39.750;-104.894;2022-07-21T00:02:06;84108.98;;;19.45;48.18
70437;BME280;57877;39.750;-104.894;2022-07-21T00:04:32;84119.73;;;20.00;47.82
70437;BME280;57877;39.750;-104.894;2022-07-21T00:06:58;84127.08;;;20.56;47.76
70437;BME280;57877;39.750;-104.894;2022-07-21T00:09:23;84128.21;;;21.07;45.18
70437;BME280;57877;39.750;-104.894;2022-07-21T00:11:50;84120.21;;;21.16;45.14
70437;BME280;57877;39.750;-104.894;2022-07-21T00:14:16;84124.12;;;21.39;44.38
70437;BME280;57877;39.750;-104.894;2022-07-21T00:16:41;84129.99;;;20.39;45.28
70437;BME280;57877;39.750;-104.894;2022-07-21T00:19:05;84126.55;;;21.04;44.80
70437;BME280;57877;39.750;-104.894;2022-07-21T00:21:30;84122.34;;;21.40;43.36
70437;BME280;57877;39.750;-104.894;2022-07-21T00:23:56;84104.59;;;21.81;41.97
70437;BME280;57877;39.750;-104.894;2022-07-21T00:26:23;84097.23;;;21.91;40.65
70437;BME280;57877;39.750;-104.894;2022-07-21T00:28:49;84100.79;;;21.38;40.49
70437;BME280;57877;39.750;-104.894;2022-07-21T00:31:15;84094.98;;;21.83;40.87
70437;BME280;57877;39.750;-104.894;2022-07-21T00:33:40;84097.45;;;22.56;39.80
70437;BME280;57877;39.750;-104.894;2022-07-21T00:36:05;84095.88;;;23.09;38.54
70437;BME280;57877;39.750;-104.894;2022-07-21T00:38:30;84087.52;;;22.74;39.50
70437;BME280;57877;39.750;-104.894;2022-07-21T00:40:55;84083.40;;;23.30;37.97
70437;BME280;57877;39.750;-104.894;2022-07-21T00:43:21;84082.37;;;22.90;37.42
70437;BME280;57877;39.750;-104.894;2022-07-21T00:45:47;84070.41;;;23.36;38.75
70437;BME280;57877;39.750;-104.894;2022-07-21T00:48:13;84071.18;;;24.19;37.25
70437;BME280;57877;39.750;-104.894;2022-07-21T00:50:39;84062.53;;;23.95;36.66
70437;BME280;57877;39.750;-104.894;2022-07-21T00:53:04;84056.45;;;23.99;37.15
70437;BME280;57877;39.750;-104.894;2022-07-21T00:55:30;84048.48;;;24.47;35.49
70437;BME280;57877;39.750;-104.894;2022-07-21T00:57:56;84045.68;;;23.65;35.81
70437;BME280;57877;39.750;-104.894;2022-07-21T01:00:24;84046.97;;;24.68;34.92
70437;BME280;57877;39.750;-104.894;2022-07-21T01:02:46;84047.31;;;24.60;34.58
70437;BME280;57877;39.750;-104.894;2022-07-21T01:05:13;84039.44;;;24.29;32.65
70437;BME280;57877;39.750;-104.894;2022-07-21T01:07:36;84033.02;;;25.50;32.22
70437;BME280;57877;39.750;-104.894;2022-07-21T01:10:03;84031.22;;;24.97;32.95
70437;BME280;57877;39.750;-104.894;2022-07-21T01:12:29;84027.79;;;25.29;32.08
70437;BME280;57877;39.750;-104.894;2022-07-21T01:14:54;84021.59;;;25.61;31.26
70437;BME280;57877;39.750;-104.894;2022-07-21T01:17:19;84015.39;;;25.67;30.73
70437;BME280;57877;39.750;-104.894;2022-07-21T01:19:45;84011.30;;;25.93;30.96
70437;BME280;57877;39.750;-104.894;2022-07-21T01:22:10;84011.06;;;25.42;30.58
70437;BME280;57877;39.750;-104.894;2022-07-21T01:24:36;84013.75;;;26.05;29.67
70437;BME280;57877;39.750;-104.894;2022-07-21T01:27:01;84012.33;;;26.41;28.19
70437;BME280;57877;39.750;-104.894;2022-07-21T01:29:26;84018.21;;;25.64;28.37
70437;BME280;57877;39.750;-104.894;2022-07-21T01:31:51;84019.54;;;25.84;28.76
70437;BME280;57877;39.750;-104.894;2022-07-21T01:34:16;84016.47;;;25.08;29.56
70437;BME280;57877;39.750;-104.894;2022-07-21T01:36:42;84009.83;;;25.21;29.55
70437;BME280;57877;39.750;-104.894;2022-07-21T01:39:08;84008.51;;;25.19;29.93
70437;BME280;57877;39.750;-104.894;2022-07-21T01:41:32;84011.83;;;24.47;30.50
70437;BME280;57877;39.750;-104.894;2022-07-21T01:44:02;84007.70;;;24.64;30.74
70437;BME280;57877;39.750;-104.894;2022-07-21T01:46:25;84005.51;;;24.55;31.90
70437;BME280;57877;39.750;-104.894;2022-07-21T01:48:49;84006.47;;;24.28;32.58
70437;BME280;57877;39.750;-104.894;2022-07-21T01:51:15;84002.99;;;24.13;33.94
70437;BME280;57877;39.750;-104.894;2022-07-21T01:53:42;84002.67;;;23.88;34.70
70437;BME280;57877;39.750;-104.894;2022-07-21T01:56:08;84000.14;;;22.94;36.64
70437;BME280;57877;39.750;-104.894;2022-07-21T01:58:33;84006.07;;;24.19;35.16
70437;BME280;57877;39.750;-104.894;2022-07-21T02:00:59;84007.84;;;24.38;34.86
70437;BME280;57877;39.750;-104.894;2022-07-21T02:03:24;84010.69;;;23.64;35.65
70437;BME280;57877;39.750;-104.894;2022-07-21T02:05:50;84010.98;;;23.56;35.12
70437;BME280;57877;39.750;-104.894;2022-07-21T02:08:17;84012.05;;;23.86;34.81
70437;BME280;57877;39.750;-104.894;2022-07-21T02:10:43;84011.42;;;24.15;34.24
70437;BME280;57877;39.750;-104.894;2022-07-21T02:13:07;84015.27;;;24.07;34.48
70437;BME280;57877;39.750;-104.894;2022-07-21T02:15:33;84018.32;;;24.34;34.10
70437;BME280;57877;39.750;-104.894;2022-07-21T02:17:58;84022.55;;;23.75;34.37
70437;BME280;57877;39.750;-104.894;2022-07-21T02:20:24;84023.06;;;23.76;34.28
70437;BME280;57877;39.750;-104.894;2022-07-21T02:22:50;84022.91;;;23.81;33.84
70437;BME280;57877;39.750;-104.894;2022-07-21T02:25:15;84021.65;;;23.03;34.11
70437;BME280;57877;39.750;-104.894;2022-07-21T02:27:41;84018.30;;;23.49;33.58
70437;BME280;57877;39.750;-104.894;2022-07-21T02:30:06;84013.80;;;23.20;33.79
70437;BME280;57877;39.750;-104.894;2022-07-21T02:32:32;84013.32;;;23.65;33.64
70437;BME280;57877;39.750;-104.894;2022-07-21T02:34:58;84022.08;;;23.09;33.37
70437;BME280;57877;39.750;-104.894;2022-07-21T02:37:24;84020.68;;;23.78;33.14
70437;BME280;57877;39.750;-104.894;2022-07-21T02:39:50;84020.07;;;23.22;33.18
70437;BME280;57877;39.750;-104.894;2022-07-21T02:42:15;84025.17;;;23.58;32.55
70437;BME280;57877;39.750;-104.894;2022-07-21T02:44:41;84022.41;;;23.67;32.66
70437;BME280;57877;39.750;-104.894;2022-07-21T02:47:07;84027.61;;;23.50;32.40
70437;BME280;57877;39.750;-104.894;2022-07-21T02:49:33;84022.17;;;23.20;32.92
70437;BME280;57877;39.750;-104.894;2022-07-21T02:51:59;84023.47;;;23.94;32.10
70437;BME280;57877;39.750;-104.894;2022-07-21T02:54:25;84023.77;;;23.75;32.31
70437;BME280;57877;39.750;-104.894;2022-07-21T02:56:51;84026.49;;;23.37;32.54
70437;BME280;57877;39.750;-104.894;2022-07-21T02:59:16;84017.67;;;23.29;32.88
70437;BME280;57877;39.750;-104.894;2022-07-21T03:01:42;84017.65;;;22.86;32.98
70437;BME280;57877;39.750;-104.894;2022-07-21T03:04:08;84013.34;;;23.22;33.22
70437;BME280;57877;39.750;-104.894;2022-07-21T03:06:34;84013.55;;;23.30;32.88
70437;BME280;57877;39.750;-104.894;2022-07-21T03:09:00;84016.10;;;23.28;33.08
70437;BME280;57877;39.750;-104.894;2022-07-21T03:11:26;84016.51;;;23.08;33.22
70437;BME280;57877;39.750;-104.894;2022-07-21T03:13:52;84015.05;;;23.08;32.84
70437;BME280;57877;39.750;-104.894;2022-07-21T03:16:18;84015.46;;;23.26;32.75
70437;BME280;57877;39.750;-104.894;2022-07-21T03:18:44;84017.78;;;23.10;32.69
70437;BME280;57877;39.750;-104.894;2022-07-21T03:21:10;84019.01;;;23.49;32.00
70437;BME280;57877;39.750;-104.894;2022-07-21T03:23:36;84019.51;;;24.02;31.15
70437;BME280;57877;39.750;-104.894;2022-07-21T03:26:02;84019.86;;;23.71;30.94
70437;BME280;57877;39.750;-104.894;2022-07-21T03:28:27;84016.47;;;23.07;31.72
70437;BME280;57877;39.750;-104.894;2022-07-21T03:30:53;84018.20;;;23.34;31.15
70437;BME280;57877;39.750;-104.894;2022-07-21T03:33:19;84016.24;;;23.27;31.21
70437;BME280;57877;39.750;-104.894;2022-07-21T03:35:45;84008.79;;;23.58;30.59
70437;BME280;57877;39.750;-104.894;2022-07-21T03:38:11;84004.35;;;23.40;31.43
70437;BME280;57877;39.750;-104.894;2022-07-21T03:40:38;84008.97;;;23.31;30.73
70437;BME280;57877;39.750;-104.894;2022-07-21T03:43:05;84009.01;;;23.76;30.23
70437;BME280;57877;39.750;-104.894;2022-07-21T03:45:31;84006.03;;;23.21;30.92
70437;BME280;57877;39.750;-104.894;2022-07-21T03:47:56;84009.83;;;23.76;30.28
70437;BME280;57877;39.750;-104.894;2022-07-21T03:50:22;83998.71;;;23.18;30.87
70437;BME280;57877;39.750;-104.894;2022-07-21T03:52:48;83989.92;;;23.06;31.47
70437;BME280;57877;39.750;-104.894;2022-07-21T03:55:14;83988.93;;;23.42;30.94
70437;BME280;57877;39.750;-104.894;2022-07-21T03:57:41;83987.22;;;23.16;31.36
70437;BME280;57877;39.750;-104.894;2022-07-21T04:00:09;83992.89;;;23.14;31.51
70437;BME280;57877;39.750;-104.894;2022-07-21T04:02:31;84003.00;;;23.15;30.85
70437;BME280;57877;39.750;-104.894;2022-07-21T04:04:57;84012.62;;;24.14;30.05
70437;BME280;57877;39.750;-104.894;2022-07-21T04:07:22;84022.84;;;24.27;29.38
70437;BME280;57877;39.750;-104.894;2022-07-21T04:09:49;84022.48;;;24.48;28.81
70437;BME280;57877;39.750;-104.894;2022-07-21T04:12:14;84023.31;;;24.02;29.13
70437;BME280;57877;39.750;-104.894;2022-07-21T04:14:41;84022.76;;;24.07;29.20
70437;BME280;57877;39.750;-104.894;2022-07-21T04:17:06;84017.00;;;24.19;29.40
70437;BME280;57877;39.750;-104.894;2022-07-21T04:19:32;84016.35;;;24.04;29.06
70437;BME280;57877;39.750;-104.894;2022-07-21T04:21:59;84014.62;;;23.78;29.77
70437;BME280;57877;39.750;-104.894;2022-07-21T04:24:25;84009.75;;;24.14;29.19
70437;BME280;57877;39.750;-104.894;2022-07-21T04:26:50;84011.18;;;24.13;28.87
70437;BME280;57877;39.750;-104.894;2022-07-21T04:29:15;84011.51;;;24.17;29.28
70437;BME280;57877;39.750;-104.894;2022-07-21T04:31:40;84005.72;;;24.25;29.22
70437;BME280;57877;39.750;-104.894;2022-07-21T04:34:05;84002.94;;;24.38;29.14
70437;BME280;57877;39.750;-104.894;2022-07-21T04:36:31;84000.78;;;23.77;29.92
70437;BME280;57877;39.750;-104.894;2022-07-21T04:38:57;84000.94;;;23.65;30.06
70437;BME280;57877;39.750;-104.894;2022-07-21T04:41:23;83996.96;;;23.22;30.94
70437;BME280;57877;39.750;-104.894;2022-07-21T04:43:48;83997.62;;;24.01;30.15
70437;BME280;57877;39.750;-104.894;2022-07-21T04:46:13;83998.67;;;23.79;30.73
70437;BME280;57877;39.750;-104.894;2022-07-21T04:48:38;83992.45;;;22.76;32.53
70437;BME280;57877;39.750;-104.894;2022-07-21T04:51:04;83993.86;;;23.02;32.44
70437;BME280;57877;39.750;-104.894;2022-07-21T04:53:30;83990.53;;;22.83;32.53
70437;BME280;57877;39.750;-104.894;2022-07-21T04:55:56;83987.91;;;22.70;32.31
70437;BME280;57877;39.750;-104.894;2022-07-21T04:58:22;83988.98;;;23.08;32.02
70437;BME280;57877;39.750;-104.894;2022-07-21T05:00:48;83994.13;;;23.05;31.78
70437;BME280;57877;39.750;-104.894;2022-07-21T05:03:14;83994.23;;;23.68;31.37
70437;BME280;57877;39.750;-104.894;2022-07-21T05:05:40;83988.92;;;23.57;30.96
70437;BME280;57877;39.750;-104.894;2022-07-21T05:08:06;83984.73;;;24.16;30.56
70437;BME280;57877;39.750;-104.894;2022-07-21T05:10:32;83980.86;;;23.50;30.82
70437;BME280;57877;39.750;-104.894;2022-07-21T05:12:58;83986.49;;;23.64;30.55
70437;BME280;57877;39.750;-104.894;2022-07-21T05:15:24;83986.37;;;23.63;30.34
70437;BME280;57877;39.750;-104.894;2022-07-21T05:17:50;83977.53;;;22.98;31.42
70437;BME280;57877;39.750;-104.894;2022-07-21T05:20:16;83972.17;;;22.91;31.87
70437;BME280;57877;39.750;-104.894;2022-07-21T05:22:42;83973.47;;;22.90;32.01
70437;BME280;57877;39.750;-104.894;2022-07-21T05:25:08;83976.41;;;23.08;31.94
70437;BME280;57877;39.750;-104.894;2022-07-21T05:27:34;83975.73;;;23.16;31.70
70437;BME280;57877;39.750;-104.894;2022-07-21T05:29:59;83966.84;;;23.29;31.15
70437;BME280;57877;39.750;-104.894;2022-07-21T05:32:26;83963.49;;;23.35;31.16
70437;BME280;57877;39.750;-104.894;2022-07-21T05:34:51;83966.74;;;23.38;31.02
70437;BME280;57877;39.750;-104.894;2022-07-21T05:37:17;83966.80;;;23.40;30.83
70437;BME280;57877;39.750;-104.894;2022-07-21T05:39:43;83967.45;;;23.64;30.50
70437;BME280;57877;39.750;-104.894;2022-07-21T05:42:09;83965.01;;;23.33;30.83
70437;BME280;57877;39.750;-104.894;2022-07-21T05:44:35;83965.98;;;22.98;31.01
70437;BME280;57877;39.750;-104.894;2022-07-21T05:47:01;83967.28;;;23.70;30.74
70437;BME280;57877;39.750;-104.894;2022-07-21T05:49:27;83968.43;;;23.60;30.15
70437;BME280;57877;39.750;-104.894;2022-07-21T05:51:53;83967.63;;;23.41;30.21
70437;BME280;57877;39.750;-104.894;2022-07-21T05:54:19;83966.97;;;23.20;30.70
70437;BME280;57877;39.750;-104.894;2022-07-21T05:56:45;83966.22;;;23.59;30.04
70437;BME280;57877;39.750;-104.894;2022-07-21T05:59:11;83966.99;;;23.55;30.08
70437;BME280;57877;39.750;-104.894;2022-07-21T06:01:37;83969.86;;;23.30;30.41
70437;BME280;57877;39.750;-104.894;2022-07-21T06:04:04;83973.62;;;23.42;30.22
70437;BME280;57877;39.750;-104.894;2022-07-21T06:06:29;83970.98;;;23.26;30.73
70437;BME280;57877;39.750;-104.894;2022-07-21T06:08:55;83970.99;;;22.78;31.22
70437;BME280;57877;39.750;-104.894;2022-07-21T06:11:22;83971.94;;;22.03;32.68
70437;BME280;57877;39.750;-104.894;2022-07-21T06:13:48;83971.47;;;22.57;32.17
70437;BME280;57877;39.750;-104.894;2022-07-21T06:16:14;83972.56;;;21.49;32.97
70437;BME280;57877;39.750;-104.894;2022-07-21T06:18:39;83971.29;;;21.85;32.63
70437;BME280;57877;39.750;-104.894;2022-07-21T06:21:06;83969.38;;;22.25;31.98
70437;BME280;57877;39.750;-104.894;2022-07-21T06:23:32;83967.29;;;21.91;32.71
70437;BME280;57877;39.750;-104.894;2022-07-21T06:25:58;83960.48;;;22.76;31.19
70437;BME280;57877;39.750;-104.894;2022-07-21T06:28:24;83962.10;;;22.18;31.58
70437;BME280;57877;39.750;-104.894;2022-07-21T06:30:50;83962.39;;;22.93;30.46
70437;BME280;57877;39.750;-104.894;2022-07-21T06:33:16;83964.86;;;23.46;29.52
70437;BME280;57877;39.750;-104.894;2022-07-21T06:35:42;83960.01;;;22.79;29.34
70437;BME280;57877;39.750;-104.894;2022-07-21T06:38:08;83956.75;;;22.95;29.40
70437;BME280;57877;39.750;-104.894;2022-07-21T06:40:34;83957.13;;;23.50;28.96
70437;BME280;57877;39.750;-104.894;2022-07-21T06:43:00;83950.77;;;22.99;29.17
70437;BME280;57877;39.750;-104.894;2022-07-21T06:45:26;83948.00;;;23.17;28.78
70437;BME280;57877;39.750;-104.894;2022-07-21T06:47:59;83948.88;;;22.86;28.98
70437;BME280;57877;39.750;-104.894;2022-07-21T06:50:17;83944.20;;;22.80;29.59
70437;BME280;57877;39.750;-104.894;2022-07-21T06:52:43;83940.15;;;22.84;29.64
70437;BME280;57877;39.750;-104.894;2022-07-21T06:55:09;83939.72;;;22.91;29.46
70437;BME280;57877;39.750;-104.894;2022-07-21T06:57:34;83936.91;;;23.27;29.14
70437;BME280;57877;39.750;-104.894;2022-07-21T07:00:00;83939.34;;;23.08;29.41
70437;BME280;57877;39.750;-104.894;2022-07-21T07:02:26;83936.66;;;22.98;29.38
70437;BME280;57877;39.750;-104.894;2022-07-21T07:04:52;83937.97;;;23.23;29.51
70437;BME280;57877;39.750;-104.894;2022-07-21T07:07:17;83942.55;;;23.12;29.36
70437;BME280;57877;39.750;-104.894;2022-07-21T07:09:42;83951.18;;;23.22;29.09
70437;BME280;57877;39.750;-104.894;2022-07-21T07:12:09;83951.77;;;23.32;29.17
70437;BME280;57877;39.750;-104.894;2022-07-21T07:14:35;83946.36;;;23.16;29.66
70437;BME280;57877;39.750;-104.894;2022-07-21T07:17:02;83941.90;;;23.05;29.54
70437;BME280;57877;39.750;-104.894;2022-07-21T07:19:27;83936.79;;;22.84;30.11
70437;BME280;57877;39.750;-104.894;2022-07-21T07:21:53;83942.96;;;22.65;29.96
70437;BME280;57877;39.750;-104.894;2022-07-21T07:24:19;83947.80;;;23.02;29.90
70437;BME280;57877;39.750;-104.894;2022-07-21T07:26:45;83946.39;;;22.92;29.78
70437;BME280;57877;39.750;-104.894;2022-07-21T07:29:11;83942.79;;;22.95;29.61
70437;BME280;57877;39.750;-104.894;2022-07-21T07:31:37;83945.34;;;23.44;29.52
70437;BME280;57877;39.750;-104.894;2022-07-21T07:34:03;83944.88;;;23.22;29.38
70437;BME280;57877;39.750;-104.894;2022-07-21T07:36:29;83943.55;;;23.21;29.19
70437;BME280;57877;39.750;-104.894;2022-07-21T07:38:56;83940.31;;;23.10;29.27
70437;BME280;57877;39.750;-104.894;2022-07-21T07:41:22;83937.17;;;22.75;29.50
70437;BME280;57877;39.750;-104.894;2022-07-21T07:43:48;83939.66;;;22.81;29.84
70437;BME280;57877;39.750;-104.894;2022-07-21T07:46:13;83940.87;;;22.95;29.56
70437;BME280;57877;39.750;-104.894;2022-07-21T07:48:38;83938.18;;;22.90;29.55
70437;BME280;57877;39.750;-104.894;2022-07-21T07:51:04;83936.74;;;22.34;30.09
70437;BME280;57877;39.750;-104.894;2022-07-21T07:53:29;83937.78;;;21.99;30.71
70437;BME280;57877;39.750;-104.894;2022-07-21T07:55:55;83941.93;;;22.83;29.94
70437;BME280;57877;39.750;-104.894;2022-07-21T07:58:20;83941.27;;;22.61;30.00
70437;BME280;57877;39.750;-104.894;2022-07-21T08:00:46;83943.04;;;22.89;29.71
70437;BME280;57877;39.750;-104.894;2022-07-21T08:03:12;83943.13;;;22.37;30.11
70437;BME280;57877;39.750;-104.894;2022-07-21T08:05:37;83947.23;;;22.89;29.62
70437;BME280;57877;39.750;-104.894;2022-07-21T08:08:03;83943.07;;;23.23;29.48
70437;BME280;57877;39.750;-104.894;2022-07-21T08:10:29;83945.03;;;23.11;29.26
70437;BME280;57877;39.750;-104.894;2022-07-21T08:12:55;83946.53;;;23.10;29.26
70437;BME280;57877;39.750;-104.894;2022-07-21T08:15:21;83950.32;;;22.55;29.56
70437;BME280;57877;39.750;-104.894;2022-07-21T08:17:47;83948.54;;;22.39;29.67
70437;BME280;57877;39.750;-104.894;2022-07-21T08:20:12;83946.69;;;22.30;30.01
70437;BME280;57877;39.750;-104.894;2022-07-21T08:22:38;83945.99;;;22.85;30.01
70437;BME280;57877;39.750;-104.894;2022-07-21T08:25:05;83947.54;;;22.03;30.98
70437;BME280;57877;39.750;-104.894;2022-07-21T08:27:30;83947.82;;;22.22;30.90
70437;BME280;57877;39.750;-104.894;2022-07-21T08:29:56;83945.90;;;22.14;30.81
70437;BME280;57877;39.750;-104.894;2022-07-21T08:32:22;83945.77;;;22.27;30.68
70437;BME280;57877;39.750;-104.894;2022-07-21T08:34:49;83945.12;;;22.08;30.81
70437;BME280;57877;39.750;-104.894;2022-07-21T08:37:14;83942.76;;;21.81;31.06
70437;BME280;57877;39.750;-104.894;2022-07-21T08:39:40;83942.98;;;22.05;30.72
70437;BME280;57877;39.750;-104.894;2022-07-21T08:42:07;83945.47;;;21.42;31.14
70437;BME280;57877;39.750;-104.894;2022-07-21T08:44:33;83947.29;;;21.74;31.14
70437;BME280;57877;39.750;-104.894;2022-07-21T08:46:58;83948.77;;;22.47;30.50
70437;BME280;57877;39.750;-104.894;2022-07-21T08:49:24;83947.46;;;22.15;30.58
70437;BME280;57877;39.750;-104.894;2022-07-21T08:51:50;83951.16;;;22.09;30.53
70437;BME280;57877;39.750;-104.894;2022-07-21T08:54:15;83952.85;;;22.25;30.69
70437;BME280;57877;39.750;-104.894;2022-07-21T08:56:40;83953.48;;;22.23;30.31
70437;BME280;57877;39.750;-104.894;2022-07-21T08:59:05;83954.77;;;22.00;30.64
70437;BME280;57877;39.750;-104.894;2022-07-21T09:01:30;83953.47;;;21.83;30.65
70437;BME280;57877;39.750;-104.894;2022-07-21T09:06:22;83955.89;;;21.54;30.92
70437;BME280;57877;39.750;-104.894;2022-07-21T09:08:50;83959.59;;;21.96;30.61
70437;BME280;57877;39.750;-104.894;2022-07-21T09:11:18;83965.63;;;22.04;30.42
70437;BME280;57877;39.750;-104.894;2022-07-21T09:13:41;83970.88;;;22.30;30.03
70437;BME280;57877;39.750;-104.894;2022-07-21T09:16:07;83973.40;;;22.36;29.99
70437;BME280;57877;39.750;-104.894;2022-07-21T09:18:31;83973.97;;;22.42;29.93
70437;BME280;57877;39.750;-104.894;2022-07-21T09:20:57;83978.96;;;22.14;30.22
70437;BME280;57877;39.750;-104.894;2022-07-21T09:23:24;83980.70;;;22.25;30.33
70437;BME280;57877;39.750;-104.894;2022-07-21T09:25:51;83975.02;;;22.22;30.43
70437;BME280;57877;39.750;-104.894;2022-07-21T09:28:17;83976.13;;;22.03;30.45
70437;BME280;57877;39.750;-104.894;2022-07-21T09:30:49;83982.21;;;21.91;30.66
70437;BME280;57877;39.750;-104.894;2022-07-21T09:33:20;83984.71;;;21.97;31.13
70437;BME280;57877;39.750;-104.894;2022-07-21T09:35:33;83983.65;;;21.61;31.00
70437;BME280;57877;39.750;-104.894;2022-07-21T09:40:25;83984.55;;;22.02;31.25
70437;BME280;57877;39.750;-104.894;2022-07-21T09:42:52;83983.75;;;21.66;31.12
70437;BME280;57877;39.750;-104.894;2022-07-21T09:45:18;83986.89;;;21.58;31.29
70437;BME280;57877;39.750;-104.894;2022-07-21T09:47:44;83990.59;;;21.79;31.34
70437;BME280;57877;39.750;-104.894;2022-07-21T09:50:11;83983.65;;;21.58;31.75
70437;BME280;57877;39.750;-104.894;2022-07-21T09:52:36;83985.05;;;21.62;31.41
70437;BME280;57877;39.750;-104.894;2022-07-21T09:55:03;83988.63;;;21.33;31.23
70437;BME280;57877;39.750;-104.894;2022-07-21T09:57:27;83991.40;;;21.71;31.15
70437;BME280;57877;39.750;-104.894;2022-07-21T09:59:53;83995.90;;;21.65;30.78
70437;BME280;57877;39.750;-104.894;2022-07-21T10:02:21;84000.74;;;21.83;30.67
70437;BME280;57877;39.750;-104.894;2022-07-21T10:04:47;84002.78;;;21.84;31.04
70437;BME280;57877;39.750;-104.894;2022-07-21T10:07:09;83998.97;;;21.56;31.38
70437;BME280;57877;39.750;-104.894;2022-07-21T10:09:35;84001.66;;;21.90;31.40
70437;BME280;57877;39.750;-104.894;2022-07-21T10:12:02;84001.36;;;21.56;31.31
70437;BME280;57877;39.750;-104.894;2022-07-21T10:14:27;84000.02;;;21.57;31.19
70437;BME280;57877;39.750;-104.894;2022-07-21T10:16:53;84001.54;;;21.47;31.78
70437;BME280;57877;39.750;-104.894;2022-07-21T10:19:23;84002.98;;;21.39;31.78
70437;BME280;57877;39.750;-104.894;2022-07-21T10:21:51;84003.10;;;21.44;31.41
70437;BME280;57877;39.750;-104.894;2022-07-21T10:24:12;84006.44;;;21.60;31.20
70437;BME280;57877;39.750;-104.894;2022-07-21T10:26:37;84010.49;;;21.78;31.83
70437;BME280;57877;39.750;-104.894;2022-07-21T10:29:03;84012.85;;;21.69;32.35
70437;BME280;57877;39.750;-104.894;2022-07-21T10:31:29;84012.56;;;21.51;32.28
70437;BME280;57877;39.750;-104.894;2022-07-21T10:33:58;84015.93;;;21.48;32.82
70437;BME280;57877;39.750;-104.894;2022-07-21T10:38:47;84026.10;;;21.17;33.25
70437;BME280;57877;39.750;-104.894;2022-07-21T10:41:35;84027.75;;;21.53;33.15
70437;BME280;57877;39.750;-104.894;2022-07-21T10:43:42;84034.91;;;21.23;33.82
70437;BME280;57877;39.750;-104.894;2022-07-21T10:46:03;84036.08;;;21.42;32.45
70437;BME280;57877;39.750;-104.894;2022-07-21T10:50:58;84042.27;;;21.40;33.03
70437;BME280;57877;39.750;-104.894;2022-07-21T10:53:19;84036.51;;;21.32;32.57
70437;BME280;57877;39.750;-104.894;2022-07-21T10:55:47;84033.16;;;21.04;33.00
70437;BME280;57877;39.750;-104.894;2022-07-21T10:58:15;84032.91;;;21.10;32.88
70437;BME280;57877;39.750;-104.894;2022-07-21T11:00:37;84038.86;;;21.06;32.93
70437;BME280;57877;39.750;-104.894;2022-07-21T11:03:03;84035.14;;;21.02;32.77
70437;BME280;57877;39.750;-104.894;2022-07-21T11:05:30;84037.83;;;20.95;32.98
70437;BME280;57877;39.750;-104.894;2022-07-21T11:10:19;84029.98;;;21.25;32.96
70437;BME280;57877;39.750;-104.894;2022-07-21T11:17:36;84038.46;;;21.20;33.22
70437;BME280;57877;39.750;-104.894;2022-07-21T11:20:12;84044.18;;;20.93;33.01
70437;BME280;57877;39.750;-104.894;2022-07-21T11:22:29;84049.79;;;20.94;33.24
70437;BME280;57877;39.750;-104.894;2022-07-21T11:24:57;84050.55;;;20.93;32.94
70437;BME280;57877;39.750;-104.894;2022-07-21T11:27:22;84053.39;;;20.70;33.55
70437;BME280;57877;39.750;-104.894;2022-07-21T11:29:47;84053.32;;;20.78;34.28
70437;BME280;57877;39.750;-104.894;2022-07-21T11:32:13;84058.10;;;20.52;34.09
70437;BME280;57877;39.750;-104.894;2022-07-21T11:34:41;84057.99;;;20.69;33.47
70437;BME280;57877;39.750;-104.894;2022-07-21T11:37:04;84063.05;;;20.40;33.72
70437;BME280;57877;39.750;-104.894;2022-07-21T11:39:30;84063.86;;;20.87;33.49
70437;BME280;57877;39.750;-104.894;2022-07-21T11:42:00;84062.70;;;20.92;34.20
70437;BME280;57877;39.750;-104.894;2022-07-21T11:44:23;84065.28;;;20.58;34.16
70437;BME280;57877;39.750;-104.894;2022-07-21T11:46:48;84066.89;;;20.69;34.08
70437;BME280;57877;39.750;-104.894;2022-07-21T11:49:11;84068.91;;;20.58;34.17
70437;BME280;57877;39.750;-104.894;2022-07-21T11:51:37;84070.97;;;20.62;34.25
70437;BME280;57877;39.750;-104.894;2022-07-21T11:54:02;84069.27;;;20.13;34.48
70437;BME280;57877;39.750;-104.894;2022-07-21T11:56:28;84069.50;;;20.48;34.48
70437;BME280;57877;39.750;-104.894;2022-07-21T12:01:20;84075.26;;;20.29;34.56
70437;BME280;57877;39.750;-104.894;2022-07-21T12:03:48;84078.88;;;20.44;34.76
70437;BME280;57877;39.750;-104.894;2022-07-21T12:06:13;84082.98;;;20.24;34.65
70437;BME280;57877;39.750;-104.894;2022-07-21T12:08:38;84082.62;;;20.55;34.67
70437;BME280;57877;39.750;-104.894;2022-07-21T12:11:05;84082.45;;;20.28;34.57
70437;BME280;57877;39.750;-104.894;2022-07-21T12:13:29;84086.77;;;20.32;34.65
70437;BME280;57877;39.750;-104.894;2022-07-21T12:15:55;84091.02;;;20.06;34.55
70437;BME280;57877;39.750;-104.894;2022-07-21T12:18:22;84092.80;;;20.11;34.32
70437;BME280;57877;39.750;-104.894;2022-07-21T12:20:45;84093.04;;;20.06;33.96
70437;BME280;57877;39.750;-104.894;2022-07-21T12:23:19;84090.12;;;20.23;33.38
70437;BME280;57877;39.750;-104.894;2022-07-21T12:25:38;84090.81;;;20.18;33.27
70437;BME280;57877;39.750;-104.894;2022-07-21T12:28:04;84089.65;;;20.07;32.56
70437;BME280;57877;39.750;-104.894;2022-07-21T12:30:33;84087.81;;;19.89;32.65
70437;BME280;57877;39.750;-104.894;2022-07-21T12:33:02;84086.68;;;19.79;32.82
70437;BME280;57877;39.750;-104.894;2022-07-21T12:35:24;84086.32;;;18.36;34.43
70437;BME280;57877;39.750;-104.894;2022-07-21T12:37:53;84090.42;;;19.85;33.55
70437;BME280;57877;39.750;-104.894;2022-07-21T12:40:12;84093.86;;;19.57;34.14
70437;BME280;57877;39.750;-104.894;2022-07-21T12:42:38;84090.74;;;19.49;34.50